sensor_id;sensor_type;location;lat;lon;timestamp;P1;durP1;ratioP1;P2;durP2;ratioP2
70026;SDS011;57506;50.092;15.804;2023-05-10T00:00:04;3.43;;;1.20;;
70026;SDS011;57506;50.092;15.804;2023-05-10T00:02:31;4.32;;;1.27;;
70026;SDS011;57506;50.092;15.804;2023-05-10T00:04:56;4.10;;;1.40;;
70026;SDS011;57506;50.092;15.804;2023-05-10T00:07:22;4.45;;;1.50;;
70026;SDS011;57506;50.092;15.804;2023-05-10T00:09:47;3.50;;;1.30;;
70026;SDS011;57506;50.092;15.804;2023-05-10T00:12:13;4.17;;;1.50;;
70026;SDS011;57506;50.092;15.804;2023-05-10T00:14:40;3.78;;;1.38;;
70026;SDS011;57506;50.092;15.804;2023-05-10T00:17:06;5.07;;;1.20;;
70026;SDS011;57506;50.092;15.804;2023-05-10T00:19:32;4.25;;;1.10;;
70026;SDS011;57506;50.092;15.804;2023-05-10T00:21:57;3.57;;;1.33;;
70026;SDS011;57506;50.092;15.804;2023-05-10T00:24:23;4.20;;;1.30;;
70026;SDS011;57506;50.092;15.804;2023-05-10T00:26:48;4.15;;;1.10;;
70026;SDS011;57506;50.092;15.804;2023-05-10T00:29:14;3.40;;;1.40;;
70026;SDS011;57506;50.092;15.804;2023-05-10T00:31:39;3.63;;;1.30;;
70026;SDS011;57506;50.092;15.804;2023-05-10T00:34:05;3.67;;;1.27;;
70026;SDS011;57506;50.092;15.804;2023-05-10T00:36:30;5.23;;;1.40;;
70026;SDS011;57506;50.092;15.804;2023-05-10T00:38:56;7.72;;;1.33;;
70026;SDS011;57506;50.092;15.804;2023-05-10T00:41:22;4.27;;;1.10;;
70026;SDS011;57506;50.092;15.804;2023-05-10T00:43:47;3.93;;;1.20;;
70026;SDS011;57506;50.092;15.804;2023-05-10T00:46:14;5.80;;;1.50;;
70026;SDS011;57506;50.092;15.804;2023-05-10T00:48:40;4.60;;;1.63;;
70026;SDS011;57506;50.092;15.804;2023-05-10T00:51:07;4.28;;;1.48;;
70026;SDS011;57506;50.092;15.804;2023-05-10T00:53:32;3.63;;;1.23;;
70026;SDS011;57506;50.092;15.804;2023-05-10T00:56:00;4.50;;;1.30;;
70026;SDS011;57506;50.092;15.804;2023-05-10T00:58:27;3.80;;;1.13;;
70026;SDS011;57506;50.092;15.804;2023-05-10T01:00:54;3.47;;;1.10;;
70026;SDS011;57506;50.092;15.804;2023-05-10T01:03:22;4.10;;;1.35;;
70026;SDS011;57506;50.092;15.804;2023-05-10T01:05:47;4.20;;;1.27;;
70026;SDS011;57506;50.092;15.804;2023-05-10T01:08:13;3.30;;;1.07;;
70026;SDS011;57506;50.092;15.804;2023-05-10T01:10:39;4.75;;;1.20;;
70026;SDS011;57506;50.092;15.804;2023-05-10T01:13:05;4.50;;;1.38;;
70026;SDS011;57506;50.092;15.804;2023-05-10T01:15:31;4.10;;;1.43;;
70026;SDS011;57506;50.092;15.804;2023-05-10T01:17:57;3.75;;;1.42;;
70026;SDS011;57506;50.092;15.804;2023-05-10T01:20:23;5.07;;;1.50;;
70026;SDS011;57506;50.092;15.804;2023-05-10T01:25:29;3.38;;;1.20;;
70026;SDS011;57506;50.092;15.804;2023-05-10T01:33:55;4.00;;;1.58;;
70026;SDS011;57506;50.092;15.804;2023-05-10T01:36:44;4.80;;;1.50;;
70026;SDS011;57506;50.092;15.804;2023-05-10T01:39:28;4.88;;;1.40;;
70026;SDS011;57506;50.092;15.804;2023-05-10T01:42:07;3.60;;;1.50;;
70026;SDS011;57506;50.092;15.804;2023-05-10T01:44:37;3.90;;;1.30;;
70026;SDS011;57506;50.092;15.804;2023-05-10T01:47:10;3.80;;;1.60;;
70026;SDS011;57506;50.092;15.804;2023-05-10T01:49:40;5.03;;;1.57;;
70026;SDS011;57506;50.092;15.804;2023-05-10T01:52:14;3.75;;;1.50;;
70026;SDS011;57506;50.092;15.804;2023-05-10T01:55:06;4.30;;;1.52;;
70026;SDS011;57506;50.092;15.804;2023-05-10T01:57:37;4.47;;;1.70;;
70026;SDS011;57506;50.092;15.804;2023-05-10T02:00:06;4.40;;;1.80;;
70026;SDS011;57506;50.092;15.804;2023-05-10T02:02:35;5.17;;;1.60;;
70026;SDS011;57506;50.092;15.804;2023-05-10T02:05:04;4.55;;;1.80;;
70026;SDS011;57506;50.092;15.804;2023-05-10T02:07:31;4.30;;;1.88;;
70026;SDS011;57506;50.092;15.804;2023-05-10T02:10:01;4.28;;;1.52;;
70026;SDS011;57506;50.092;15.804;2023-05-10T02:12:29;4.47;;;1.70;;
70026;SDS011;57506;50.092;15.804;2023-05-10T02:14:57;5.13;;;1.80;;
70026;SDS011;57506;50.092;15.804;2023-05-10T02:17:25;4.57;;;1.63;;
70026;SDS011;57506;50.092;15.804;2023-05-10T02:19:53;4.68;;;1.70;;
70026;SDS011;57506;50.092;15.804;2023-05-10T02:22:22;5.07;;;1.60;;
70026;SDS011;57506;50.092;15.804;2023-05-10T02:24:50;4.07;;;1.67;;
70026;SDS011;57506;50.092;15.804;2023-05-10T02:27:16;4.87;;;1.50;;
70026;SDS011;57506;50.092;15.804;2023-05-10T02:29:45;4.30;;;1.60;;
70026;SDS011;57506;50.092;15.804;2023-05-10T02:32:11;4.88;;;2.00;;
70026;SDS011;57506;50.092;15.804;2023-05-10T02:34:37;4.47;;;1.77;;
70026;SDS011;57506;50.092;15.804;2023-05-10T02:37:04;6.72;;;1.95;;
70026;SDS011;57506;50.092;15.804;2023-05-10T02:39:31;4.27;;;1.53;;
70026;SDS011;57506;50.092;15.804;2023-05-10T02:41:57;9.05;;;1.80;;
70026;SDS011;57506;50.092;15.804;2023-05-10T02:44:24;4.20;;;1.60;;
70026;SDS011;57506;50.092;15.804;2023-05-10T02:46:52;5.50;;;1.77;;
70026;SDS011;57506;50.092;15.804;2023-05-10T02:49:20;4.22;;;1.55;;
70026;SDS011;57506;50.092;15.804;2023-05-10T02:51:57;4.33;;;1.73;;
70026;SDS011;57506;50.092;15.804;2023-05-10T02:54:29;5.82;;;1.90;;
70026;SDS011;57506;50.092;15.804;2023-05-10T02:56:58;4.72;;;1.65;;
70026;SDS011;57506;50.092;15.804;2023-05-10T02:59:25;4.35;;;1.80;;
70026;SDS011;57506;50.092;15.804;2023-05-10T03:01:52;3.90;;;1.40;;
70026;SDS011;57506;50.092;15.804;2023-05-10T03:04:17;4.75;;;1.73;;
70026;SDS011;57506;50.092;15.804;2023-05-10T03:06:43;6.93;;;1.70;;
70026;SDS011;57506;50.092;15.804;2023-05-10T03:09:09;5.37;;;1.67;;
70026;SDS011;57506;50.092;15.804;2023-05-10T03:14:57;4.03;;;1.50;;
70026;SDS011;57506;50.092;15.804;2023-05-10T03:18:03;5.15;;;1.92;;
70026;SDS011;57506;50.092;15.804;2023-05-10T03:20:38;6.30;;;1.80;;
70026;SDS011;57506;50.092;15.804;2023-05-10T03:23:11;5.17;;;2.00;;
70026;SDS011;57506;50.092;15.804;2023-05-10T03:25:46;4.80;;;1.88;;
70026;SDS011;57506;50.092;15.804;2023-05-10T03:28:14;4.68;;;1.65;;
70026;SDS011;57506;50.092;15.804;2023-05-10T03:30:41;7.88;;;1.70;;
70026;SDS011;57506;50.092;15.804;2023-05-10T03:33:08;3.90;;;1.63;;
70026;SDS011;57506;50.092;15.804;2023-05-10T03:35:33;5.60;;;1.83;;
70026;SDS011;57506;50.092;15.804;2023-05-10T03:37:59;4.07;;;1.63;;
70026;SDS011;57506;50.092;15.804;2023-05-10T03:40:25;6.87;;;2.20;;
70026;SDS011;57506;50.092;15.804;2023-05-10T03:42:54;4.10;;;1.60;;
70026;SDS011;57506;50.092;15.804;2023-05-10T03:45:22;4.93;;;1.70;;
70026;SDS011;57506;50.092;15.804;2023-05-10T03:47:48;4.82;;;1.73;;
70026;SDS011;57506;50.092;15.804;2023-05-10T03:50:16;4.43;;;1.70;;
70026;SDS011;57506;50.092;15.804;2023-05-10T03:52:44;3.97;;;1.60;;
70026;SDS011;57506;50.092;15.804;2023-05-10T03:55:11;5.10;;;1.63;;
70026;SDS011;57506;50.092;15.804;2023-05-10T03:57:37;5.73;;;2.17;;
70026;SDS011;57506;50.092;15.804;2023-05-10T04:00:08;5.32;;;1.83;;
70026;SDS011;57506;50.092;15.804;2023-05-10T04:02:34;4.20;;;1.75;;
70026;SDS011;57506;50.092;15.804;2023-05-10T04:05:00;6.17;;;1.80;;
70026;SDS011;57506;50.092;15.804;2023-05-10T04:07:26;4.78;;;1.92;;
70026;SDS011;57506;50.092;15.804;2023-05-10T04:09:51;4.10;;;1.60;;
70026;SDS011;57506;50.092;15.804;2023-05-10T04:12:17;5.75;;;1.63;;
70026;SDS011;57506;50.092;15.804;2023-05-10T04:14:43;5.30;;;1.90;;
70026;SDS011;57506;50.092;15.804;2023-05-10T04:17:09;4.50;;;1.83;;
70026;SDS011;57506;50.092;15.804;2023-05-10T04:19:35;4.93;;;1.80;;
70026;SDS011;57506;50.092;15.804;2023-05-10T04:22:01;4.70;;;1.47;;
70026;SDS011;57506;50.092;15.804;2023-05-10T04:24:27;3.83;;;1.60;;
70026;SDS011;57506;50.092;15.804;2023-05-10T04:26:56;3.70;;;1.70;;
70026;SDS011;57506;50.092;15.804;2023-05-10T04:29:22;5.82;;;1.70;;
70026;SDS011;57506;50.092;15.804;2023-05-10T04:31:47;4.65;;;1.90;;
70026;SDS011;57506;50.092;15.804;2023-05-10T04:34:16;3.70;;;1.50;;
70026;SDS011;57506;50.092;15.804;2023-05-10T04:36:42;4.50;;;1.65;;
70026;SDS011;57506;50.092;15.804;2023-05-10T04:39:07;5.45;;;1.80;;
70026;SDS011;57506;50.092;15.804;2023-05-10T04:41:34;5.77;;;1.83;;
70026;SDS011;57506;50.092;15.804;2023-05-10T04:43:59;6.40;;;1.60;;
70026;SDS011;57506;50.092;15.804;2023-05-10T04:46:25;4.07;;;1.77;;
70026;SDS011;57506;50.092;15.804;2023-05-10T04:48:50;4.65;;;1.67;;
70026;SDS011;57506;50.092;15.804;2023-05-10T04:51:16;7.67;;;1.67;;
70026;SDS011;57506;50.092;15.804;2023-05-10T04:53:41;6.07;;;1.50;;
70026;SDS011;57506;50.092;15.804;2023-05-10T04:56:07;4.00;;;1.50;;
70026;SDS011;57506;50.092;15.804;2023-05-10T04:58:32;9.87;;;1.50;;
70026;SDS011;57506;50.092;15.804;2023-05-10T05:01:06;4.97;;;1.90;;
70026;SDS011;57506;50.092;15.804;2023-05-10T05:03:32;4.45;;;1.80;;
70026;SDS011;57506;50.092;15.804;2023-05-10T05:09:03;4.20;;;1.50;;
70026;SDS011;57506;50.092;15.804;2023-05-10T05:11:29;4.40;;;1.67;;
70026;SDS011;57506;50.092;15.804;2023-05-10T05:13:58;4.20;;;1.73;;
70026;SDS011;57506;50.092;15.804;2023-05-10T05:16:24;4.53;;;1.90;;
70026;SDS011;57506;50.092;15.804;2023-05-10T05:18:50;4.80;;;1.80;;
70026;SDS011;57506;50.092;15.804;2023-05-10T05:21:16;4.20;;;1.70;;
70026;SDS011;57506;50.092;15.804;2023-05-10T05:23:42;4.18;;;1.92;;
70026;SDS011;57506;50.092;15.804;2023-05-10T05:26:09;8.02;;;1.70;;
70026;SDS011;57506;50.092;15.804;2023-05-10T05:28:34;4.20;;;1.63;;
70026;SDS011;57506;50.092;15.804;2023-05-10T05:31:02;3.95;;;1.65;;
70026;SDS011;57506;50.092;15.804;2023-05-10T05:33:28;4.30;;;1.75;;
70026;SDS011;57506;50.092;15.804;2023-05-10T05:35:54;8.03;;;2.03;;
70026;SDS011;57506;50.092;15.804;2023-05-10T05:38:20;4.40;;;1.88;;
70026;SDS011;57506;50.092;15.804;2023-05-10T05:40:45;6.50;;;2.00;;
70026;SDS011;57506;50.092;15.804;2023-05-10T05:43:11;8.63;;;2.20;;
70026;SDS011;57506;50.092;15.804;2023-05-10T05:45:36;7.97;;;2.20;;
70026;SDS011;57506;50.092;15.804;2023-05-10T05:48:02;6.20;;;2.20;;
70026;SDS011;57506;50.092;15.804;2023-05-10T05:50:28;7.95;;;1.90;;
70026;SDS011;57506;50.092;15.804;2023-05-10T05:52:53;5.27;;;1.93;;
70026;SDS011;57506;50.092;15.804;2023-05-10T05:55:19;4.70;;;2.10;;
70026;SDS011;57506;50.092;15.804;2023-05-10T05:57:44;5.78;;;2.05;;
70026;SDS011;57506;50.092;15.804;2023-05-10T06:00:10;4.47;;;2.00;;
70026;SDS011;57506;50.092;15.804;2023-05-10T06:02:36;6.00;;;1.67;;
70026;SDS011;57506;50.092;15.804;2023-05-10T06:05:02;6.10;;;1.97;;
70026;SDS011;57506;50.092;15.804;2023-05-10T06:07:27;5.28;;;1.80;;
70026;SDS011;57506;50.092;15.804;2023-05-10T06:09:53;7.07;;;2.10;;
70026;SDS011;57506;50.092;15.804;2023-05-10T06:12:18;6.80;;;2.20;;
70026;SDS011;57506;50.092;15.804;2023-05-10T06:14:44;5.53;;;2.10;;
70026;SDS011;57506;50.092;15.804;2023-05-10T06:17:09;6.90;;;2.27;;
70026;SDS011;57506;50.092;15.804;2023-05-10T06:19:35;5.80;;;2.10;;
70026;SDS011;57506;50.092;15.804;2023-05-10T06:22:01;5.28;;;2.38;;
70026;SDS011;57506;50.092;15.804;2023-05-10T06:24:27;6.38;;;2.30;;
70026;SDS011;57506;50.092;15.804;2023-05-10T06:26:53;6.27;;;2.10;;
70026;SDS011;57506;50.092;15.804;2023-05-10T06:29:18;9.03;;;2.23;;
70026;SDS011;57506;50.092;15.804;2023-05-10T06:31:44;5.65;;;2.20;;
70026;SDS011;57506;50.092;15.804;2023-05-10T06:34:09;5.90;;;2.60;;
70026;SDS011;57506;50.092;15.804;2023-05-10T06:36:36;7.03;;;2.50;;
70026;SDS011;57506;50.092;15.804;2023-05-10T06:39:02;5.10;;;2.17;;
70026;SDS011;57506;50.092;15.804;2023-05-10T06:41:27;10.05;;;2.40;;
70026;SDS011;57506;50.092;15.804;2023-05-10T06:43:53;4.77;;;2.00;;
70026;SDS011;57506;50.092;15.804;2023-05-10T06:46:18;6.80;;;2.40;;
70026;SDS011;57506;50.092;15.804;2023-05-10T06:48:44;4.93;;;2.42;;
70026;SDS011;57506;50.092;15.804;2023-05-10T06:51:09;5.07;;;2.50;;
70026;SDS011;57506;50.092;15.804;2023-05-10T06:53:35;5.37;;;2.53;;
70026;SDS011;57506;50.092;15.804;2023-05-10T06:56:00;4.63;;;2.25;;
70026;SDS011;57506;50.092;15.804;2023-05-10T06:58:31;8.68;;;2.80;;
70026;SDS011;57506;50.092;15.804;2023-05-10T07:01:04;6.37;;;2.50;;
70026;SDS011;57506;50.092;15.804;2023-05-10T07:03:30;5.82;;;2.33;;
70026;SDS011;57506;50.092;15.804;2023-05-10T07:06:02;5.00;;;2.25;;
70026;SDS011;57506;50.092;15.804;2023-05-10T07:08:31;5.88;;;2.25;;
70026;SDS011;57506;50.092;15.804;2023-05-10T07:11:01;5.28;;;2.33;;
70026;SDS011;57506;50.092;15.804;2023-05-10T07:13:32;13.27;;;2.87;;
70026;SDS011;57506;50.092;15.804;2023-05-10T07:15:59;7.57;;;2.42;;
70026;SDS011;57506;50.092;15.804;2023-05-10T07:18:25;6.60;;;2.90;;
70026;SDS011;57506;50.092;15.804;2023-05-10T07:20:51;7.85;;;2.47;;
70026;SDS011;57506;50.092;15.804;2023-05-10T07:23:17;7.97;;;2.53;;
70026;SDS011;57506;50.092;15.804;2023-05-10T07:25:46;8.38;;;2.30;;
70026;SDS011;57506;50.092;15.804;2023-05-10T07:28:13;5.03;;;2.30;;
70026;SDS011;57506;50.092;15.804;2023-05-10T07:30:40;4.93;;;2.47;;
70026;SDS011;57506;50.092;15.804;2023-05-10T07:33:05;8.47;;;2.30;;
70026;SDS011;57506;50.092;15.804;2023-05-10T07:35:31;4.50;;;2.13;;
70026;SDS011;57506;50.092;15.804;2023-05-10T07:37:56;4.95;;;2.40;;
70026;SDS011;57506;50.092;15.804;2023-05-10T07:40:22;4.80;;;1.90;;
70026;SDS011;57506;50.092;15.804;2023-05-10T07:42:47;6.80;;;2.00;;
70026;SDS011;57506;50.092;15.804;2023-05-10T07:45:13;5.68;;;1.73;;
70026;SDS011;57506;50.092;15.804;2023-05-10T07:47:39;7.50;;;2.10;;
70026;SDS011;57506;50.092;15.804;2023-05-10T07:50:04;6.65;;;1.95;;
70026;SDS011;57506;50.092;15.804;2023-05-10T07:52:30;4.40;;;1.70;;
70026;SDS011;57506;50.092;15.804;2023-05-10T07:54:56;8.32;;;1.98;;
70026;SDS011;57506;50.092;15.804;2023-05-10T07:57:22;4.40;;;1.80;;
70026;SDS011;57506;50.092;15.804;2023-05-10T07:59:47;6.65;;;1.70;;
70026;SDS011;57506;50.092;15.804;2023-05-10T08:02:13;8.47;;;2.20;;
70026;SDS011;57506;50.092;15.804;2023-05-10T08:04:38;6.32;;;2.15;;
70026;SDS011;57506;50.092;15.804;2023-05-10T08:07:04;5.73;;;2.20;;
70026;SDS011;57506;50.092;15.804;2023-05-10T08:09:30;5.67;;;2.00;;
70026;SDS011;57506;50.092;15.804;2023-05-10T08:11:55;4.82;;;1.83;;
70026;SDS011;57506;50.092;15.804;2023-05-10T08:14:21;5.50;;;2.20;;
70026;SDS011;57506;50.092;15.804;2023-05-10T08:16:47;7.07;;;2.07;;
70026;SDS011;57506;50.092;15.804;2023-05-10T08:19:12;7.93;;;2.47;;
70026;SDS011;57506;50.092;15.804;2023-05-10T08:21:38;6.90;;;2.05;;
70026;SDS011;57506;50.092;15.804;2023-05-10T08:24:05;4.78;;;2.03;;
70026;SDS011;57506;50.092;15.804;2023-05-10T08:26:32;4.40;;;1.60;;
70026;SDS011;57506;50.092;15.804;2023-05-10T08:28:58;5.13;;;2.20;;
70026;SDS011;57506;50.092;15.804;2023-05-10T08:31:23;10.40;;;2.10;;
70026;SDS011;57506;50.092;15.804;2023-05-10T08:33:49;4.80;;;2.23;;
70026;SDS011;57506;50.092;15.804;2023-05-10T08:36:16;6.47;;;2.08;;
70026;SDS011;57506;50.092;15.804;2023-05-10T08:38:46;6.28;;;2.10;;
70026;SDS011;57506;50.092;15.804;2023-05-10T08:41:15;4.78;;;2.20;;
70026;SDS011;57506;50.092;15.804;2023-05-10T08:43:41;8.73;;;2.20;;
70026;SDS011;57506;50.092;15.804;2023-05-10T08:46:11;6.90;;;2.42;;
70026;SDS011;57506;50.092;15.804;2023-05-10T08:48:42;5.50;;;2.13;;
70026;SDS011;57506;50.092;15.804;2023-05-10T08:51:11;4.88;;;1.90;;
70026;SDS011;57506;50.092;15.804;2023-05-10T08:53:38;6.45;;;2.30;;
70026;SDS011;57506;50.092;15.804;2023-05-10T08:56:04;6.80;;;2.70;;
70026;SDS011;57506;50.092;15.804;2023-05-10T08:58:30;4.10;;;1.90;;
70026;SDS011;57506;50.092;15.804;2023-05-10T09:00:56;3.90;;;1.92;;
70026;SDS011;57506;50.092;15.804;2023-05-10T09:03:23;5.30;;;2.07;;
70026;SDS011;57506;50.092;15.804;2023-05-10T09:05:48;7.63;;;2.30;;
70026;SDS011;57506;50.092;15.804;2023-05-10T09:08:14;6.85;;;2.28;;
70026;SDS011;57506;50.092;15.804;2023-05-10T09:10:43;5.40;;;2.60;;
70026;SDS011;57506;50.092;15.804;2023-05-10T09:13:12;9.73;;;2.50;;
70026;SDS011;57506;50.092;15.804;2023-05-10T09:15:40;12.65;;;2.47;;
70026;SDS011;57506;50.092;15.804;2023-05-10T09:18:06;5.15;;;2.40;;
70026;SDS011;57506;50.092;15.804;2023-05-10T09:20:31;5.07;;;2.20;;
70026;SDS011;57506;50.092;15.804;2023-05-10T09:22:57;7.78;;;2.40;;
70026;SDS011;57506;50.092;15.804;2023-05-10T09:25:23;4.63;;;2.20;;
70026;SDS011;57506;50.092;15.804;2023-05-10T09:27:49;8.20;;;2.75;;
70026;SDS011;57506;50.092;15.804;2023-05-10T09:30:23;7.45;;;2.60;;
70026;SDS011;57506;50.092;15.804;2023-05-10T09:32:51;6.20;;;2.65;;
70026;SDS011;57506;50.092;15.804;2023-05-10T09:35:18;5.73;;;2.40;;
70026;SDS011;57506;50.092;15.804;2023-05-10T09:37:47;6.65;;;3.00;;
70026;SDS011;57506;50.092;15.804;2023-05-10T09:40:19;6.70;;;2.42;;
70026;SDS011;57506;50.092;15.804;2023-05-10T09:43:07;5.80;;;2.80;;
70026;SDS011;57506;50.092;15.804;2023-05-10T09:45:34;5.22;;;2.28;;
70026;SDS011;57506;50.092;15.804;2023-05-10T09:48:01;4.40;;;2.50;;
70026;SDS011;57506;50.092;15.804;2023-05-10T09:50:28;4.97;;;2.47;;
70026;SDS011;57506;50.092;15.804;2023-05-10T09:53:01;8.30;;;2.80;;
70026;SDS011;57506;50.092;15.804;2023-05-10T09:55:41;6.13;;;2.35;;
70026;SDS011;57506;50.092;15.804;2023-05-10T09:58:09;4.78;;;2.47;;
70026;SDS011;57506;50.092;15.804;2023-05-10T10:00:39;4.97;;;2.70;;
70026;SDS011;57506;50.092;15.804;2023-05-10T10:03:06;6.13;;;2.47;;
70026;SDS011;57506;50.092;15.804;2023-05-10T10:05:39;5.57;;;2.30;;
70026;SDS011;57506;50.092;15.804;2023-05-10T10:08:05;11.15;;;2.78;;
70026;SDS011;57506;50.092;15.804;2023-05-10T10:10:32;4.60;;;2.33;;
70026;SDS011;57506;50.092;15.804;2023-05-10T10:12:58;11.63;;;2.38;;
70026;SDS011;57506;50.092;15.804;2023-05-10T10:15:25;5.18;;;2.60;;
70026;SDS011;57506;50.092;15.804;2023-05-10T10:17:51;5.72;;;2.35;;
70026;SDS011;57506;50.092;15.804;2023-05-10T10:20:18;5.78;;;2.92;;
70026;SDS011;57506;50.092;15.804;2023-05-10T10:22:44;6.10;;;2.13;;
70026;SDS011;57506;50.092;15.804;2023-05-10T10:25:11;5.57;;;2.20;;
70026;SDS011;57506;50.092;15.804;2023-05-10T10:36:19;6.17;;;2.00;;
70026;SDS011;57506;50.092;15.804;2023-05-10T10:41:12;5.20;;;2.17;;
70026;SDS011;57506;50.092;15.804;2023-05-10T11:00:24;8.02;;;1.83;;
70026;SDS011;57506;50.092;15.804;2023-05-10T11:03:05;4.28;;;2.03;;
70026;SDS011;57506;50.092;15.804;2023-05-10T11:05:50;5.03;;;1.60;;
70026;SDS011;57506;50.092;15.804;2023-05-10T11:08:29;4.72;;;1.70;;
70026;SDS011;57506;50.092;15.804;2023-05-10T11:13:37;4.93;;;1.80;;
70026;SDS011;57506;50.092;15.804;2023-05-10T11:18:36;3.50;;;1.60;;
70026;SDS011;57506;50.092;15.804;2023-05-10T11:21:01;4.65;;;1.83;;
70026;SDS011;57506;50.092;15.804;2023-05-10T11:23:48;4.82;;;1.63;;
70026;SDS011;57506;50.092;15.804;2023-05-10T11:26:15;4.65;;;1.75;;
70026;SDS011;57506;50.092;15.804;2023-05-10T11:28:44;4.23;;;1.80;;
70026;SDS011;57506;50.092;15.804;2023-05-10T11:31:14;4.28;;;1.70;;
70026;SDS011;57506;50.092;15.804;2023-05-10T11:36:17;4.25;;;1.50;;
70026;SDS011;57506;50.092;15.804;2023-05-10T11:38:45;6.15;;;1.70;;
70026;SDS011;57506;50.092;15.804;2023-05-10T11:41:11;5.90;;;1.73;;
70026;SDS011;57506;50.092;15.804;2023-05-10T11:43:41;3.90;;;1.80;;
70026;SDS011;57506;50.092;15.804;2023-05-10T11:46:07;4.78;;;1.73;;
70026;SDS011;57506;50.092;15.804;2023-05-10T11:48:34;5.55;;;1.80;;
70026;SDS011;57506;50.092;15.804;2023-05-10T11:51:00;3.27;;;1.40;;
70026;SDS011;57506;50.092;15.804;2023-05-10T11:53:27;3.42;;;1.70;;
70026;SDS011;57506;50.092;15.804;2023-05-10T11:56:03;3.38;;;1.40;;
70026;SDS011;57506;50.092;15.804;2023-05-10T11:58:30;3.67;;;1.63;;
70026;SDS011;57506;50.092;15.804;2023-05-10T12:00:57;3.80;;;1.85;;
70026;SDS011;57506;50.092;15.804;2023-05-10T12:03:24;3.90;;;1.70;;
70026;SDS011;57506;50.092;15.804;2023-05-10T12:05:50;6.05;;;1.63;;
70026;SDS011;57506;50.092;15.804;2023-05-10T12:08:19;3.70;;;1.80;;
70026;SDS011;57506;50.092;15.804;2023-05-10T12:10:50;5.50;;;1.40;;
70026;SDS011;57506;50.092;15.804;2023-05-10T12:13:17;3.70;;;1.55;;
70026;SDS011;57506;50.092;15.804;2023-05-10T12:15:45;6.78;;;1.40;;
70026;SDS011;57506;50.092;15.804;2023-05-10T12:18:12;5.43;;;1.45;;
70026;SDS011;57506;50.092;15.804;2023-05-10T12:20:39;4.88;;;1.58;;
70026;SDS011;57506;50.092;15.804;2023-05-10T12:23:05;3.90;;;1.53;;
70026;SDS011;57506;50.092;15.804;2023-05-10T12:25:33;5.25;;;1.90;;
70026;SDS011;57506;50.092;15.804;2023-05-10T12:28:00;3.70;;;1.48;;
70026;SDS011;57506;50.092;15.804;2023-05-10T12:30:30;4.53;;;1.67;;
70026;SDS011;57506;50.092;15.804;2023-05-10T12:33:01;3.10;;;1.40;;
70026;SDS011;57506;50.092;15.804;2023-05-10T12:35:47;3.97;;;1.30;;
70026;SDS011;57506;50.092;15.804;2023-05-10T12:40:53;3.55;;;1.50;;
70026;SDS011;57506;50.092;15.804;2023-05-10T12:43:19;7.73;;;1.30;;
70026;SDS011;57506;50.092;15.804;2023-05-10T12:45:45;4.20;;;1.50;;
70026;SDS011;57506;50.092;15.804;2023-05-10T12:48:13;4.63;;;1.20;;
70026;SDS011;57506;50.092;15.804;2023-05-10T12:50:38;3.33;;;1.47;;
70026;SDS011;57506;50.092;15.804;2023-05-10T12:53:04;3.53;;;1.38;;
70026;SDS011;57506;50.092;15.804;2023-05-10T12:55:30;4.40;;;1.50;;
70026;SDS011;57506;50.092;15.804;2023-05-10T12:57:55;3.80;;;2.00;;
70026;SDS011;57506;50.092;15.804;2023-05-10T13:00:21;3.63;;;1.63;;
70026;SDS011;57506;50.092;15.804;2023-05-10T13:02:47;3.15;;;1.33;;
70026;SDS011;57506;50.092;15.804;2023-05-10T13:05:12;5.27;;;1.40;;
70026;SDS011;57506;50.092;15.804;2023-05-10T13:07:38;3.47;;;1.30;;
70026;SDS011;57506;50.092;15.804;2023-05-10T13:10:05;6.33;;;1.47;;
70026;SDS011;57506;50.092;15.804;2023-05-10T13:12:31;4.13;;;1.20;;
70026;SDS011;57506;50.092;15.804;2023-05-10T13:14:57;3.60;;;1.52;;
70026;SDS011;57506;50.092;15.804;2023-05-10T13:17:22;5.10;;;1.50;;
70026;SDS011;57506;50.092;15.804;2023-05-10T13:19:50;3.97;;;1.60;;
70026;SDS011;57506;50.092;15.804;2023-05-10T13:22:16;4.25;;;1.42;;
70026;SDS011;57506;50.092;15.804;2023-05-10T13:24:42;6.83;;;1.40;;
70026;SDS011;57506;50.092;15.804;2023-05-10T13:27:08;4.43;;;1.60;;
70026;SDS011;57506;50.092;15.804;2023-05-10T13:29:34;5.57;;;1.42;;
70026;SDS011;57506;50.092;15.804;2023-05-10T13:31:59;4.67;;;1.60;;
70026;SDS011;57506;50.092;15.804;2023-05-10T13:34:26;3.38;;;1.50;;
70026;SDS011;57506;50.092;15.804;2023-05-10T13:36:52;4.67;;;1.23;;
70026;SDS011;57506;50.092;15.804;2023-05-10T13:39:19;5.68;;;1.40;;
70026;SDS011;57506;50.092;15.804;2023-05-10T13:41:45;4.28;;;1.60;;
70026;SDS011;57506;50.092;15.804;2023-05-10T13:44:12;5.05;;;1.60;;
70026;SDS011;57506;50.092;15.804;2023-05-10T13:46:39;5.88;;;1.42;;
70026;SDS011;57506;50.092;15.804;2023-05-10T13:49:05;4.43;;;1.33;;
70026;SDS011;57506;50.092;15.804;2023-05-10T13:51:30;5.35;;;1.70;;
70026;SDS011;57506;50.092;15.804;2023-05-10T13:53:56;5.03;;;1.50;;
70026;SDS011;57506;50.092;15.804;2023-05-10T13:56:23;4.55;;;1.63;;
70026;SDS011;57506;50.092;15.804;2023-05-10T13:58:48;5.03;;;1.33;;
70026;SDS011;57506;50.092;15.804;2023-05-10T14:01:14;3.37;;;1.67;;
70026;SDS011;57506;50.092;15.804;2023-05-10T14:03:40;4.15;;;1.50;;
70026;SDS011;57506;50.092;15.804;2023-05-10T14:06:05;5.10;;;1.60;;
70026;SDS011;57506;50.092;15.804;2023-05-10T14:08:32;4.75;;;1.40;;
70026;SDS011;57506;50.092;15.804;2023-05-10T14:10:59;6.50;;;1.50;;
70026;SDS011;57506;50.092;15.804;2023-05-10T14:13:24;4.30;;;1.47;;
70026;SDS011;57506;50.092;15.804;2023-05-10T14:15:50;3.28;;;1.48;;
70026;SDS011;57506;50.092;15.804;2023-05-10T14:18:16;4.70;;;1.40;;
70026;SDS011;57506;50.092;15.804;2023-05-10T14:20:42;6.30;;;1.40;;
70026;SDS011;57506;50.092;15.804;2023-05-10T14:23:08;4.22;;;1.42;;
70026;SDS011;57506;50.092;15.804;2023-05-10T14:25:33;5.33;;;1.57;;
70026;SDS011;57506;50.092;15.804;2023-05-10T14:27:59;4.88;;;1.40;;
70026;SDS011;57506;50.092;15.804;2023-05-10T14:30:25;3.90;;;1.50;;
70026;SDS011;57506;50.092;15.804;2023-05-10T14:32:50;4.18;;;1.42;;
70026;SDS011;57506;50.092;15.804;2023-05-10T14:35:17;4.90;;;1.47;;
70026;SDS011;57506;50.092;15.804;2023-05-10T14:37:43;6.35;;;1.50;;
70026;SDS011;57506;50.092;15.804;2023-05-10T14:40:08;3.60;;;1.77;;
70026;SDS011;57506;50.092;15.804;2023-05-10T14:42:34;6.40;;;1.65;;
70026;SDS011;57506;50.092;15.804;2023-05-10T14:45:00;5.43;;;1.70;;
70026;SDS011;57506;50.092;15.804;2023-05-10T14:47:25;4.83;;;1.73;;
70026;SDS011;57506;50.092;15.804;2023-05-10T14:49:51;3.95;;;1.55;;
70026;SDS011;57506;50.092;15.804;2023-05-10T14:52:16;3.57;;;1.70;;
70026;SDS011;57506;50.092;15.804;2023-05-10T14:54:42;5.70;;;1.90;;
70026;SDS011;57506;50.092;15.804;2023-05-10T14:57:08;6.03;;;1.70;;
70026;SDS011;57506;50.092;15.804;2023-05-10T14:59:33;6.83;;;1.73;;
70026;SDS011;57506;50.092;15.804;2023-05-10T15:01:59;8.30;;;1.90;;
70026;SDS011;57506;50.092;15.804;2023-05-10T15:04:24;6.27;;;2.03;;
70026;SDS011;57506;50.092;15.804;2023-05-10T15:06:50;3.47;;;1.70;;
70026;SDS011;57506;50.092;15.804;2023-05-10T15:09:15;4.40;;;1.55;;
70026;SDS011;57506;50.092;15.804;2023-05-10T15:11:41;4.97;;;1.70;;
70026;SDS011;57506;50.092;15.804;2023-05-10T15:14:08;4.28;;;1.60;;
70026;SDS011;57506;50.092;15.804;2023-05-10T15:16:33;4.80;;;1.90;;
70026;SDS011;57506;50.092;15.804;2023-05-10T15:18:59;4.05;;;1.90;;
70026;SDS011;57506;50.092;15.804;2023-05-10T15:21:24;6.17;;;1.60;;
70026;SDS011;57506;50.092;15.804;2023-05-10T15:23:50;4.97;;;1.70;;
70026;SDS011;57506;50.092;15.804;2023-05-10T15:26:15;5.60;;;1.70;;